Time;durP1;ratioP1;P1;durP2;ratioP2;P2;SDS_P1;SDS_P2;PMS_P1;PMS_P2;Temp;Humidity;BMP_temperature;BMP_pressure;BME280_temperature;BME280_humidity;BME280_pressure;Samples;Min_cycle;Max_cycle;Signal;HPM_P1;HPM_P2
2022/10/17 00:00:28;;;;;;;10.02;7.60;;;;;;;13.74;100.00;101405.41;5034006;28;20028;-71
2022/10/17 00:02:56;;;;;;;11.68;7.60;;;;;;;13.74;100.00;101399.13;5028563;28;20072;-71
2022/10/17 00:05:22;;;;;;;7.75;7.05;;;;;;;13.75;100.00;101395.34;5016349;28;20083;-71
2022/10/17 00:07:48;;;;;;;9.65;7.50;;;;;;;13.78;100.00;101392.16;5016514;28;20154;-71
2022/10/17 00:10:13;;;;;;;9.07;7.32;;;;;;;13.77;100.00;101393.25;5015942;28;20061;-71
2022/10/17 00:12:39;;;;;;;11.70;7.57;;;;;;;13.76;100.00;101391.56;5016089;28;20032;-71
2022/10/17 00:15:05;;;;;;;7.85;6.68;;;;;;;13.79;100.00;101396.53;5016383;28;20125;-71
2022/10/17 00:17:30;;;;;;;9.68;7.68;;;;;;;13.79;100.00;101389.19;5016243;28;20636;-71
2022/10/17 00:19:58;;;;;;;10.02;7.85;;;;;;;13.80;100.00;101392.78;5016287;28;20196;-71
2022/10/17 00:22:23;;;;;;;9.73;7.38;;;;;;;13.80;100.00;101393.59;5015733;28;20030;-71
2022/10/17 00:24:48;;;;;;;9.02;7.55;;;;;;;13.82;100.00;101386.00;5016126;28;20169;-71
2022/10/17 00:27:13;;;;;;;9.90;7.97;;;;;;;13.82;100.00;101383.28;5016014;28;20168;-71
2022/10/17 00:29:39;;;;;;;11.45;7.95;;;;;;;13.84;100.00;101372.19;5016277;28;20449;-71
2022/10/17 00:32:04;;;;;;;15.43;7.97;;;;;;;13.85;100.00;101382.00;5015770;28;20065;-71
2022/10/17 00:34:30;;;;;;;8.60;7.70;;;;;;;13.82;100.00;101374.31;5015482;28;20468;-71
2022/10/17 00:36:55;;;;;;;9.63;8.48;;;;;;;13.82;100.00;101371.59;5014755;28;20072;-71
2022/10/17 00:39:20;;;;;;;11.48;8.35;;;;;;;13.84;100.00;101369.47;5015789;28;20123;-71
2022/10/17 00:41:46;;;;;;;13.45;7.93;;;;;;;13.86;100.00;101374.66;5015798;28;20037;-71
2022/10/17 00:44:29;;;;;;;13.27;8.60;;;;;;;13.87;100.00;101373.63;5014566;28;20515;-71
2022/10/17 00:47:08;;;;;;;10.13;8.38;;;;;;;13.86;100.00;101374.66;5015558;28;20473;-71
2022/10/17 00:49:35;;;;;;;9.77;8.35;;;;;;;13.87;100.00;101370.91;5014906;28;20050;-71
2022/10/17 00:52:04;;;;;;;11.55;8.35;;;;;;;13.83;100.00;101371.34;5016241;28;20108;-71
2022/10/17 00:54:33;;;;;;;9.23;7.93;;;;;;;13.82;100.00;101377.84;5014761;28;20030;-71
2022/10/17 00:56:59;;;;;;;11.18;8.70;;;;;;;13.81;100.00;101373.50;5015646;28;20056;-71
2022/10/17 00:59:25;;;;;;;10.63;8.07;;;;;;;13.82;100.00;101366.16;5015481;28;20026;-71
2022/10/17 01:01:58;;;;;;;12.82;8.18;;;;;;;13.80;100.00;101368.28;5011764;28;20033;-71
2022/10/17 01:04:23;;;;;;;10.70;8.38;;;;;;;13.81;100.00;101375.38;5014546;28;20033;-71
2022/10/17 01:06:49;;;;;;;9.85;8.60;;;;;;;13.80;100.00;101377.28;5015488;28;20033;-71
2022/10/17 01:09:14;;;;;;;11.73;8.48;;;;;;;13.77;100.00;101371.47;5015352;28;20022;-71
2022/10/17 01:11:53;;;;;;;11.70;8.80;;;;;;;13.78;100.00;101367.69;5014773;28;20369;-71
2022/10/17 01:14:36;;;;;;;12.43;8.30;;;;;;;13.79;100.00;101370.16;5017662;28;20054;-71
2022/10/17 01:17:12;;;;;;;12.82;8.82;;;;;;;13.77;100.00;101369.56;5015082;28;20369;-71
2022/10/17 01:20:07;;;;;;;10.70;8.93;;;;;;;13.80;100.00;101371.84;5015323;28;20018;-71
2022/10/17 01:22:35;;;;;;;11.13;9.38;;;;;;;13.81;100.00;101367.22;5014478;28;20052;-71
2022/10/17 01:25:25;;;;;;;11.35;9.00;;;;;;;13.86;100.00;101371.94;5014800;28;20053;-71
2022/10/17 01:28:06;;;;;;;13.38;9.45;;;;;;;13.90;100.00;101370.41;5015488;28;20022;-71
2022/10/17 01:31:04;;;;;;;13.15;9.25;;;;;;;13.91;100.00;101362.03;5031765;28;20061;-71
2022/10/17 01:33:47;;;;;;;15.32;10.00;;;;;;;13.94;100.00;101355.28;5043550;28;20045;-71
2022/10/17 01:36:25;;;;;;;11.00;9.70;;;;;;;13.96;100.00;101364.84;5034466;28;20014;-71
2022/10/17 01:39:05;;;;;;;10.75;9.52;;;;;;;13.96;100.00;101359.41;5034352;28;20017;-71
2022/10/17 01:41:49;;;;;;;12.33;9.57;;;;;;;13.97;100.00;101352.91;5027657;28;20013;-71
2022/10/17 01:44:22;;;;;;;13.00;9.75;;;;;;;13.97;100.00;101349.38;5014337;28;20076;-71
2022/10/17 01:46:51;;;;;;;12.80;9.82;;;;;;;13.97;100.00;101358.38;5014645;28;20097;-71
2022/10/17 01:49:20;;;;;;;15.85;9.30;;;;;;;13.94;100.00;101350.66;5014615;28;20036;-71
2022/10/17 01:51:55;;;;;;;13.13;9.27;;;;;;;13.97;100.00;101347.47;5016510;28;20155;-71
2022/10/17 01:54:26;;;;;;;11.05;9.48;;;;;;;13.96;100.00;101353.97;5014185;28;20025;-71
2022/10/17 01:56:57;;;;;;;12.10;9.77;;;;;;;13.99;100.00;101364.41;5014721;28;20038;-71
2022/10/17 01:59:30;;;;;;;12.03;9.37;;;;;;;14.01;100.00;101353.28;5014297;28;20025;-71
2022/10/17 02:01:57;;;;;;;14.80;10.05;;;;;;;14.02;100.00;101345.94;5011232;28;20362;-71
2022/10/17 02:04:24;;;;;;;12.25;8.90;;;;;;;14.05;100.00;101351.75;5014328;28;20088;-71
2022/10/17 02:06:49;;;;;;;13.05;9.48;;;;;;;14.06;100.00;101347.97;5012961;28;20051;-71
2022/10/17 02:09:23;;;;;;;14.65;9.60;;;;;;;14.06;100.00;101342.53;5014194;28;20072;-71
2022/10/17 02:12:26;;;;;;;13.07;9.48;;;;;;;14.07;100.00;101335.19;5011068;28;20128;-71
2022/10/17 02:15:12;;;;;;;12.10;9.32;;;;;;;14.04;100.00;101330.22;5012355;28;20096;-71
2022/10/17 02:17:47;;;;;;;14.00;9.63;;;;;;;14.05;100.00;101331.88;5013616;28;20028;-71
2022/10/17 02:20:31;;;;;;;12.00;9.45;;;;;;;14.05;100.00;101337.31;5013954;28;20108;-71
2022/10/17 02:23:09;;;;;;;12.40;9.35;;;;;;;14.06;100.00;101330.81;5013395;28;20449;-71
2022/10/17 02:25:42;;;;;;;12.15;9.23;;;;;;;14.07;100.00;101337.91;5013587;28;20042;-71
2022/10/17 02:28:23;;;;;;;11.77;9.10;;;;;;;14.09;100.00;101342.03;5012482;28;20022;-71
2022/10/17 02:31:01;;;;;;;10.32;9.15;;;;;;;14.11;100.00;101333.66;5013865;28;20030;-71
2022/10/17 02:33:33;;;;;;;12.75;8.98;;;;;;;14.13;100.00;101342.38;5021956;28;20029;-71
2022/10/17 02:36:01;;;;;;;;;;;;;;;14.20;100.00;101332.22;5032693;28;20037;-71
2022/10/17 02:38:28;;;;;;;9.95;8.82;;;;;;;14.24;100.00;101338.03;5033208;28;19913;-71
2022/10/17 02:40:54;;;;;;;12.43;9.00;;;;;;;14.23;100.00;101337.19;5033615;28;20108;-71
2022/10/17 02:43:21;;;;;;;12.32;8.88;;;;;;;14.25;100.00;101334.22;5017654;28;20466;-71
2022/10/17 02:45:48;;;;;;;11.60;8.63;;;;;;;14.27;100.00;101341.09;5026978;28;20121;-71
2022/10/17 02:48:26;;;;;;;13.88;8.98;;;;;;;14.31;100.00;101336.84;5013558;28;20034;-71
2022/10/17 02:51:10;;;;;;;12.65;8.70;;;;;;;14.31;100.00;101339.56;5013507;28;20030;-71
2022/10/17 02:53:44;;;;;;;11.30;8.50;;;;;;;14.31;100.00;101334.13;5015465;28;20054;-71
2022/10/17 02:56:18;;;;;;;16.45;8.80;;;;;;;14.30;100.00;101337.91;5013276;28;20028;-71
2022/10/17 02:58:54;;;;;;;15.13;8.80;;;;;;;14.31;100.00;101339.56;5013244;28;20116;-71
2022/10/17 03:01:20;;;;;;;9.77;8.32;;;;;;;14.31;100.00;101334.13;5010818;28;20025;-71
2022/10/17 03:03:46;;;;;;;16.33;8.70;;;;;;;14.29;100.00;101336.22;5012392;28;20030;-71
2022/10/17 03:06:11;;;;;;;14.63;8.40;;;;;;;14.25;100.00;101335.06;5013368;28;20101;-71
2022/10/17 03:08:36;;;;;;;12.00;8.60;;;;;;;14.27;100.00;101332.13;5013035;28;20449;-71
2022/10/17 03:11:02;;;;;;;12.52;9.18;;;;;;;14.29;100.00;101330.78;5012622;28;20041;-71
2022/10/17 03:13:29;;;;;;;13.75;8.68;;;;;;;14.29;100.00;101333.50;5013547;28;20516;-71
2022/10/17 03:15:57;;;;;;;12.40;8.43;;;;;;;14.30;100.00;101331.63;5013184;28;20029;-71
2022/10/17 03:18:23;;;;;;;10.50;8.20;;;;;;;14.34;100.00;101333.63;5012790;28;20042;-71
2022/10/17 03:20:48;;;;;;;11.48;8.63;;;;;;;14.33;100.00;101321.09;5013424;28;20032;-71
2022/10/17 03:23:13;;;;;;;9.73;8.10;;;;;;;14.33;100.00;101323.81;5023476;28;20034;-71
2022/10/17 03:25:39;;;;;;;15.75;8.85;;;;;;;14.34;100.00;101335.50;5031002;28;20041;-71
2022/10/17 03:28:04;;;;;;;13.25;8.70;;;;;;;14.35;100.00;101339.91;5032832;28;20087;-71
2022/10/17 03:30:30;;;;;;;13.30;8.52;;;;;;;14.34;100.00;101336.38;5032552;28;20463;-71
2022/10/17 03:32:58;;;;;;;13.23;7.85;;;;;;;14.33;100.00;101337.41;5018094;28;20384;-71
2022/10/17 03:35:24;;;;;;;13.55;8.20;;;;;;;14.34;100.00;101339.09;5012985;28;20499;-71
2022/10/17 03:37:49;;;;;;;11.35;8.25;;;;;;;14.34;100.00;101338.25;5012943;28;20072;-71
2022/10/17 03:40:15;;;;;;;10.18;8.23;;;;;;;14.34;100.00;101333.63;5012598;28;20018;-70
2022/10/17 03:42:40;;;;;;;12.88;8.45;;;;;;;14.34;100.00;101336.38;5012166;28;20524;-70
2022/10/17 03:45:07;;;;;;;12.43;8.30;;;;;;;14.34;100.00;101333.63;5011617;28;20022;-71
2022/10/17 03:47:32;;;;;;;9.02;7.80;;;;;;;14.34;100.00;101320.03;5029572;28;20094;-70
2022/10/17 03:49:58;;;;;;;14.20;8.68;;;;;;;14.34;100.00;101322.75;5032249;28;20654;-70
2022/10/17 03:52:23;;;;;;;12.52;8.32;;;;;;;14.34;100.00;101314.59;5026652;28;20025;-70
2022/10/17 03:54:50;;;;;;;16.25;8.15;;;;;;;14.35;100.00;101324.38;5017940;28;20049;-70
2022/10/17 03:57:15;;;;;;;11.27;7.57;;;;;;;14.34;100.00;101322.75;5021576;28;20037;-70
2022/10/17 03:59:41;;;;;;;14.23;8.50;;;;;;;14.35;100.00;101321.66;5029004;28;20057;-70
2022/10/17 04:02:06;;;;;;;13.60;8.48;;;;;;;14.36;100.00;101336.94;5029904;28;20022;-70
2022/10/17 04:04:31;;;;;;;12.80;8.07;;;;;;;14.39;100.00;101337.53;5026654;28;20462;-70
2022/10/17 04:06:57;;;;;;;14.57;7.97;;;;;;;14.41;100.00;101343.56;5013277;28;20022;-70
2022/10/17 04:09:22;;;;;;;11.35;8.23;;;;;;;14.41;100.00;101338.94;5023818;28;20025;-70
2022/10/17 04:11:47;;;;;;;13.00;8.05;;;;;;;14.42;100.00;101340.63;5030390;28;20155;-70
2022/10/17 04:14:13;;;;;;;12.55;8.18;;;;;;;14.46;100.00;101340.94;5023925;28;20029;-69
2022/10/17 04:16:38;;;;;;;14.50;8.10;;;;;;;14.47;100.00;101345.34;5018974;28;20025;-69
2022/10/17 04:19:04;;;;;;;10.48;8.48;;;;;;;14.54;100.00;101344.16;5015525;28;20029;-70
2022/10/17 04:21:29;;;;;;;11.70;8.40;;;;;;;14.57;100.00;101334.69;5023196;28;20025;-70
2022/10/17 04:23:56;;;;;;;10.57;7.82;;;;;;;14.59;100.00;101343.41;5012960;28;20025;-70
2022/10/17 04:26:22;;;;;;;11.27;7.90;;;;;;;14.59;100.00;101348.88;5015820;28;20046;-71
2022/10/17 04:28:48;;;;;;;9.85;7.57;;;;;;;14.61;100.00;101354.94;5015019;28;20027;-70
2022/10/17 04:31:14;;;;;;;11.50;7.85;;;;;;;14.62;100.00;101363.94;5015887;28;20030;-70
2022/10/17 04:33:40;;;;;;;16.17;7.90;;;;;;;14.64;100.00;101361.78;5015583;28;20022;-75
2022/10/17 04:36:10;;;;;;;11.93;7.82;;;;;;;14.61;100.00;101363.09;5016160;28;20052;-70
2022/10/17 04:38:36;;;;;;;13.50;8.10;;;;;;;14.61;100.00;101367.72;5015017;28;20026;-71
2022/10/17 04:41:03;;;;;;;15.98;8.02;;;;;;;14.63;100.00;101384.66;5021896;28;20484;-70
2022/10/17 04:43:30;;;;;;;11.68;7.68;;;;;;;14.61;100.00;101381.34;5033880;28;20025;-69
2022/10/17 04:45:59;;;;;;;13.07;8.00;;;;;;;14.59;100.00;101388.91;5035679;28;20037;-69
2022/10/17 04:48:24;;;;;;;10.05;8.10;;;;;;;14.57;100.00;101380.97;5031644;28;20030;-69
2022/10/17 04:51:01;;;;;;;10.02;7.15;;;;;;;14.56;100.00;101387.47;5016348;28;20516;-69
2022/10/17 04:53:29;;;;;;;8.57;7.43;;;;;;;14.58;100.00;101398.94;5015891;28;20405;-70
2022/10/17 04:55:54;;;;;;;11.30;7.70;;;;;;;14.57;100.00;101391.03;5038431;28;20036;-69
2022/10/17 04:58:19;;;;;;;12.25;7.72;;;;;;;14.58;100.00;101396.22;5035360;28;20045;-70
2022/10/17 05:00:45;;;;;;;12.63;7.60;;;;;;;14.58;100.00;101398.94;5012488;28;20242;-70
2022/10/17 05:03:10;;;;;;;10.15;7.55;;;;;;;14.59;100.00;101400.63;5034040;28;20484;-70
2022/10/17 05:05:37;;;;;;;9.57;7.55;;;;;;;14.57;100.00;101408.22;5035286;28;20030;-70
2022/10/17 05:08:04;;;;;;;8.88;7.63;;;;;;;14.58;100.00;101403.59;5035411;28;20064;-70
2022/10/17 05:10:29;;;;;;;17.27;7.78;;;;;;;14.59;100.00;101400.63;5035055;28;20032;-70
2022/10/17 05:12:54;;;;;;;13.48;8.00;;;;;;;14.58;100.00;101388.06;5033714;28;20038;-70
2022/10/17 05:15:20;;;;;;;12.98;7.82;;;;;;;14.66;100.00;101387.75;5035053;28;20453;-70
2022/10/17 05:17:45;;;;;;;9.15;7.78;;;;;;;14.66;100.00;101393.19;5034720;28;20112;-70
2022/10/17 05:20:10;;;;;;;12.10;7.57;;;;;;;14.68;100.00;101404.66;5034650;28;20022;-70
2022/10/17 05:22:36;;;;;;;12.60;7.20;;;;;;;14.69;100.00;101408.22;5030140;28;20223;-70
2022/10/17 05:25:01;;;;;;;11.68;7.80;;;;;;;14.70;100.00;101405.28;5034918;28;20049;-70
2022/10/17 05:27:26;;;;;;;8.93;7.40;;;;;;;14.71;100.00;101408.81;5034572;28;20025;-70
2022/10/17 05:29:52;;;;;;;15.05;7.78;;;;;;;14.76;100.00;101419.00;5033330;28;20034;-70
2022/10/17 05:32:17;;;;;;;12.30;7.43;;;;;;;14.76;100.00;101416.25;5021455;28;20116;-70
2022/10/17 05:34:43;;;;;;;10.60;7.18;;;;;;;14.78;100.00;101406.78;5014576;28;20037;-70
2022/10/17 05:37:08;;;;;;;10.93;6.97;;;;;;;14.77;100.00;101417.94;5012991;28;20038;-70
2022/10/17 05:39:33;;;;;;;12.38;7.25;;;;;;;14.82;100.00;101420.75;5014798;28;20021;-70
2022/10/17 05:41:58;;;;;;;13.30;7.38;;;;;;;14.86;100.00;101421.94;5014186;28;20037;-70
2022/10/17 05:44:24;;;;;;;7.72;6.95;;;;;;;14.87;100.00;101423.56;5015302;28;20029;-70
2022/10/17 05:46:49;;;;;;;11.88;7.32;;;;;;;14.90;100.00;101423.13;5034162;28;20029;-70
2022/10/17 05:49:15;;;;;;;12.93;7.60;;;;;;;14.90;100.00;101428.56;5034366;28;20017;-70
2022/10/17 05:51:41;;;;;;;11.00;7.00;;;;;;;14.93;100.00;101447.16;5026080;28;20037;-70
2022/10/17 05:54:07;;;;;;;11.20;6.40;;;;;;;14.94;100.00;101429.72;5013969;28;20057;-70
2022/10/17 05:56:33;;;;;;;9.10;6.18;;;;;;;14.95;100.00;101431.41;5014326;28;20105;-70
2022/10/17 05:58:58;;;;;;;12.30;7.22;;;;;;;14.94;100.00;101418.84;5018842;28;20222;-70
2022/10/17 06:01:23;;;;;;;11.35;6.95;;;;;;;14.96;100.00;101429.50;5026502;28;20244;-70
2022/10/17 06:03:49;;;;;;;13.18;7.68;;;;;;;14.95;100.00;101431.41;5012873;28;20029;-70
2022/10/17 06:06:15;;;;;;;11.48;6.88;;;;;;;14.95;100.00;101430.56;5014344;28;20037;-70
2022/10/17 06:08:40;;;;;;;13.27;7.32;;;;;;;14.97;100.00;101431.16;5014045;28;20030;-70
2022/10/17 06:11:07;;;;;;;13.77;6.82;;;;;;;14.98;100.00;101428.19;5014100;28;20104;-70
2022/10/17 06:13:33;;;;;;;9.15;6.95;;;;;;;15.00;100.00;101431.50;5013909;28;20030;-70
2022/10/17 06:15:58;;;;;;;11.95;7.03;;;;;;;15.00;100.00;101439.66;5014385;28;20101;-70
2022/10/17 06:18:25;;;;;;;10.70;6.50;;;;;;;15.02;100.00;101433.97;5013501;28;20061;-70
2022/10/17 06:20:50;;;;;;;10.40;6.88;;;;;;;15.03;100.00;101441.91;5013139;28;20017;-70
2022/10/17 06:23:16;;;;;;;14.25;6.93;;;;;;;15.03;100.00;101444.63;5014204;28;20374;-70
2022/10/17 06:25:41;;;;;;;9.93;6.80;;;;;;;15.05;100.00;101447.97;5013605;28;20057;-70
2022/10/17 06:28:07;;;;;;;10.60;6.85;;;;;;;15.03;100.00;101433.75;5013922;28;20099;-70
2022/10/17 06:30:32;;;;;;;13.27;6.72;;;;;;;15.06;100.00;101437.88;5013452;28;20065;-70
2022/10/17 06:32:57;;;;;;;12.27;6.32;;;;;;;15.09;100.00;101436.59;5013250;28;20033;-70
2022/10/17 06:35:23;;;;;;;11.85;6.63;;;;;;;15.07;100.00;101437.66;5013892;28;20072;-70
2022/10/17 06:37:48;;;;;;;12.77;6.93;;;;;;;15.11;100.00;101440.72;5017516;28;20035;-70
2022/10/17 06:40:15;;;;;;;8.38;6.05;;;;;;;15.10;100.00;101435.50;5031123;28;20029;-70
2022/10/17 06:42:41;;;;;;;13.98;7.15;;;;;;;15.13;100.00;101444.03;5018738;28;20399;-70
2022/10/17 06:45:07;;;;;;;14.35;6.10;;;;;;;15.13;100.00;101448.66;5015253;28;20017;-70
2022/10/17 06:47:33;;;;;;;12.05;7.47;;;;;;;15.16;100.00;101468.09;5031303;28;20040;-70
2022/10/17 06:49:58;;;;;;;8.73;6.18;;;;;;;15.18;100.00;101462.41;5032928;28;20029;-70
2022/10/17 06:52:24;;;;;;;15.55;6.60;;;;;;;15.22;100.00;101463.59;5021575;28;20038;-70
2022/10/17 06:54:50;;;;;;;9.85;6.00;;;;;;;15.22;100.00;101466.31;5013223;28;20101;-70
2022/10/17 06:57:16;;;;;;;10.15;6.20;;;;;;;15.23;100.00;101467.94;5013179;28;20044;-72
2022/10/17 06:59:41;;;;;;;9.77;6.07;;;;;;;15.26;100.00;101464.72;5012888;28;20038;-73
2022/10/17 07:02:09;;;;;;;9.65;6.07;;;;;;;15.29;100.00;101460.69;5019357;28;20032;-74
2022/10/17 07:04:34;;;;;;;10.88;6.47;;;;;;;15.31;100.00;101462.13;5013153;28;20422;-75
2022/10/17 07:07:01;;;;;;;14.75;6.40;;;;;;;15.35;100.00;101465.19;5019406;28;20112;-70
2022/10/17 07:09:27;;;;;;;11.52;6.35;;;;;;;15.39;100.00;101474.56;5033253;28;20365;-71
2022/10/17 07:11:55;;;;;;;9.73;5.82;;;;;;;15.41;100.00;101467.78;5025543;28;20025;-71
2022/10/17 07:14:20;;;;;;;10.95;5.95;;;;;;;15.41;100.00;101464.22;5013184;28;20037;-70
2022/10/17 07:16:46;;;;;;;10.20;5.82;;;;;;;15.43;100.00;101470.28;5012819;28;20025;-71
2022/10/17 07:19:11;;;;;;;7.95;5.90;;;;;;;15.46;100.00;101471.66;5012720;28;20032;-74
2022/10/17 07:21:37;;;;;;;11.27;5.80;;;;;;;15.47;100.00;101478.78;5011413;28;20026;-71
2022/10/17 07:24:02;;;;;;;11.88;6.13;;;;;;;15.47;100.00;101481.53;5019527;28;20042;-72
2022/10/17 07:26:27;;;;;;;13.88;6.10;;;;;;;15.48;100.00;101480.47;5032695;28;20149;-70
2022/10/17 07:28:54;;;;;;;8.80;5.80;;;;;;;15.47;100.00;101486.97;5032134;28;20108;-70
2022/10/17 07:31:21;;;;;;;9.32;5.50;;;;;;;15.49;100.00;101498.47;5030970;28;20071;-71
2022/10/17 07:33:47;;;;;;;7.47;5.72;;;;;;;15.51;100.00;101508.06;5012047;28;20030;-70
2022/10/17 07:36:12;;;;;;;14.70;6.45;;;;;;;15.54;100.00;101528.59;5028298;28;20036;-71
2022/10/17 07:38:38;;;;;;;11.25;5.28;;;;;;;15.58;100.00;101555.13;5030722;28;20028;-73
2022/10/17 07:41:06;;;;;;;10.00;5.43;;;;;;;15.63;100.00;101573.50;5045296;28;20060;-72
2022/10/17 07:43:32;;;;;;;11.35;5.43;;;;;;;15.65;100.00;101593.19;5026060;28;20026;-72
2022/10/17 07:46:00;;;;;;;16.98;5.80;;;;;;;15.71;100.00;101603.13;5010859;28;20026;-72
2022/10/17 07:48:25;;;;;;;12.30;5.53;;;;;;;15.80;100.00;101620.00;5012577;28;20084;-72
2022/10/17 07:50:51;;;;;;;10.13;5.55;;;;;;;15.81;100.00;101631.75;5011760;28;20030;-75
2022/10/17 07:53:17;;;;;;;10.52;5.72;;;;;;;15.80;100.00;101630.09;5017655;28;20044;-75
2022/10/17 07:55:43;;;;;;;12.10;5.70;;;;;;;15.76;100.00;101638.72;5012400;28;20372;-71
2022/10/17 07:58:09;;;;;;;9.00;5.38;;;;;;;15.87;100.00;101641.72;5024182;28;20025;-72
2022/10/17 08:00:35;;;;;;;14.30;5.60;;;;;;;15.92;100.00;101625.44;5033100;28;20117;-72
2022/10/17 08:03:00;;;;;;;11.10;5.63;;;;;;;15.91;100.00;101626.50;5036090;28;20030;-72
2022/10/17 08:05:26;;;;;;;14.75;6.07;;;;;;;15.86;100.00;101632.66;5036272;28;20380;-73
2022/10/17 08:07:51;;;;;;;16.83;5.82;;;;;;;15.83;100.00;101624.97;5028577;28;20040;-72
2022/10/17 08:10:17;;;;;;;10.82;6.15;;;;;;;15.80;100.00;101628.19;5022790;28;20033;-72
2022/10/17 08:12:42;;;;;;;11.55;6.82;;;;;;;15.77;100.00;101626.75;5036004;28;20029;-72
2022/10/17 08:15:08;;;;;;;13.57;7.15;;;;;;;15.74;100.00;101640.03;5025478;28;20083;-74
2022/10/17 08:17:35;;;;;;;15.05;6.75;;;;;;;15.70;100.00;101656.06;5017354;28;20037;-74
2022/10/17 08:20:01;;;;;;;12.35;6.90;;;;;;;15.71;100.00;101679.53;5042698;28;20072;-73
2022/10/17 08:22:26;;;;;;;13.60;6.97;;;;;;;15.73;100.00;101698.41;5054495;28;20025;-72
2022/10/17 08:24:52;;;;;;;13.00;7.40;;;;;;;15.72;100.00;101703.03;5020195;28;20033;-72
2022/10/17 08:27:22;;;;;;;11.60;6.90;;;;;;;15.72;100.00;101692.13;5027582;28;20037;-72
2022/10/17 08:29:51;;;;;;;10.43;7.28;;;;;;;15.70;100.00;101691.53;5030129;28;20038;-72
2022/10/17 08:32:18;;;;;;;11.73;6.60;;;;;;;15.71;100.00;101693.19;5015793;28;20136;-73
2022/10/17 08:34:43;;;;;;;12.90;6.85;;;;;;;15.71;100.00;101693.19;5015243;28;20113;-73
2022/10/17 08:37:09;;;;;;;13.32;7.05;;;;;;;15.72;100.00;101694.03;5015749;28;20105;-72
2022/10/17 08:39:35;;;;;;;13.18;7.05;;;;;;;15.73;100.00;101685.59;5015330;28;20026;-72
2022/10/17 08:42:33;;;;;;;12.77;7.15;;;;;;;15.71;100.00;101693.19;5015541;28;20109;-72
2022/10/17 08:45:25;;;;;;;13.88;7.22;;;;;;;15.70;100.00;101696.16;5015691;28;20064;-72
2022/10/17 08:47:53;;;;;;;;;;;;;;;15.69;100.00;101687.13;5018149;28;20114;-73
2022/10/17 08:50:35;;;;;;;11.75;7.28;;;;;;;15.68;100.00;101690.09;5026410;28;19944;-73
2022/10/17 08:53:11;;;;;;;9.57;7.18;;;;;;;15.67;100.00;101683.84;5014177;28;20412;-73
2022/10/17 08:55:38;;;;;;;13.65;7.70;;;;;;;15.68;100.00;101680.00;5015922;28;20049;-73
2022/10/17 08:58:19;;;;;;;12.45;7.25;;;;;;;15.66;100.00;101682.16;5015396;28;20030;-73
2022/10/17 09:01:28;;;;;;;10.50;7.50;;;;;;;15.67;100.00;101683.84;5012837;28;20099;-72
2022/10/17 09:04:30;;;;;;;24.17;7.85;;;;;;;15.67;100.00;101689.28;4986212;28;20362;-73
2022/10/17 09:07:16;;;;;;;12.88;7.63;;;;;;;15.67;100.00;101704.81;5013818;28;20083;-73
2022/10/17 09:10:16;;;;;;;24.25;9.13;;;;;;;15.67;100.00;101711.13;5015269;28;20098;-72
2022/10/17 09:13:08;;;;;;;20.38;8.93;;;;;;;15.65;100.00;101726.88;5014904;28;20076;-73
2022/10/17 09:16:06;;;;;;;12.43;7.75;;;;;;;15.65;100.00;101743.25;5014939;28;20041;-73
2022/10/17 09:18:39;;;;;;;15.20;7.88;;;;;;;15.64;100.00;101749.78;5014914;28;20022;-73
2022/10/17 09:21:17;;;;;;;19.70;8.18;;;;;;;15.65;100.00;101769.72;5014855;28;20030;-72
2022/10/17 09:23:50;;;;;;;14.30;8.35;;;;;;;15.60;100.00;101743.97;5013732;28;20026;-73
2022/10/17 09:26:15;;;;;;;15.75;8.38;;;;;;;15.59;100.00;101739.59;5015056;28;20096;-73
2022/10/17 09:28:41;;;;;;;16.95;8.27;;;;;;;15.56;100.00;101696.38;5015076;28;20037;-73
2022/10/17 09:31:21;;;;;;;14.55;8.40;;;;;;;15.56;100.00;101665.56;5013622;28;20026;-73
2022/10/17 09:33:49;;;;;;;11.63;8.05;;;;;;;15.56;100.00;101639.09;5014388;28;20080;-74
2022/10/17 09:36:22;;;;;;;12.93;8.32;;;;;;;15.56;100.00;101660.91;5013659;28;20030;-74
2022/10/17 09:38:51;;;;;;;15.52;8.70;;;;;;;15.59;100.00;101665.06;5014394;28;20029;-74
2022/10/17 09:41:29;;;;;;;12.77;8.38;;;;;;;15.61;100.00;101690.25;5014999;28;20097;-74
2022/10/17 09:44:08;;;;;;;12.80;8.23;;;;;;;15.60;100.00;101705.75;5014367;28;20296;-73
2022/10/17 09:46:37;;;;;;;13.32;8.23;;;;;;;15.62;100.00;101715.63;5013452;28;20112;-73
2022/10/17 09:49:09;;;;;;;15.70;9.15;;;;;;;15.60;100.00;101716.69;5014318;28;20033;-73
2022/10/17 09:51:37;;;;;;;14.70;7.93;;;;;;;15.62;100.00;101705.53;5014685;28;20026;-73
2022/10/17 09:54:07;;;;;;;16.80;8.38;;;;;;;15.61;100.00;101706.63;5013361;28;20113;-73
2022/10/17 09:57:03;;;;;;;11.15;8.18;;;;;;;15.63;100.00;101695.47;5014553;28;20061;-73
2022/10/17 09:59:50;;;;;;;14.68;8.32;;;;;;;15.66;100.00;101695.81;5014523;28;20022;-73
2022/10/17 10:02:18;;;;;;;15.13;8.45;;;;;;;15.67;100.00;101694.75;5004505;28;20034;-74
2022/10/17 10:04:53;;;;;;;13.10;8.63;;;;;;;15.71;100.00;101689.63;5014365;28;20021;-74
2022/10/17 10:07:19;;;;;;;10.48;8.57;;;;;;;15.69;100.00;101694.50;5014588;28;20464;-74
2022/10/17 10:09:46;;;;;;;14.75;9.23;;;;;;;15.70;100.00;101693.41;5014368;28;20026;-74
2022/10/17 10:12:19;;;;;;;15.93;8.35;;;;;;;15.71;100.00;101711.44;5027531;28;20025;-74
2022/10/17 10:14:45;;;;;;;13.70;8.30;;;;;;;15.71;100.00;101717.72;5033952;28;20338;-74
2022/10/17 10:17:43;;;;;;;10.63;7.60;;;;;;;15.72;100.00;101730.31;5033775;28;20037;-73
2022/10/17 10:20:29;;;;;;;13.35;8.60;;;;;;;15.74;100.00;101733.63;5033771;28;20112;-74
2022/10/17 10:23:12;;;;;;;12.45;8.15;;;;;;;15.74;100.00;101739.09;5031745;28;20021;-74
2022/10/17 10:25:37;;;;;;;11.48;7.72;;;;;;;15.75;100.00;101742.66;5033550;28;20377;-73
2022/10/17 10:28:09;;;;;;;12.25;8.05;;;;;;;15.77;100.00;101751.44;5033465;28;20033;-73
2022/10/17 10:30:35;;;;;;;11.65;7.60;;;;;;;15.77;100.00;101756.88;5024873;28;20026;-73
2022/10/17 10:33:00;;;;;;;11.45;6.60;;;;;;;15.80;100.00;101747.44;5013455;28;20354;-73
2022/10/17 10:35:36;;;;;;;12.98;6.95;;;;;;;15.80;100.00;101759.19;5013851;28;20034;-74
2022/10/17 10:38:07;;;;;;;13.70;6.80;;;;;;;15.82;100.00;101767.97;5013324;28;20381;-73
2022/10/17 10:40:37;;;;;;;9.35;6.57;;;;;;;15.84;100.00;101776.75;5013734;28;20037;-73
2022/10/17 10:43:05;;;;;;;13.15;6.35;;;;;;;15.82;100.00;101788.97;5013128;28;20026;-73
2022/10/17 10:45:36;;;;;;;8.90;6.47;;;;;;;15.84;100.00;101800.50;5013768;28;20461;-73
2022/10/17 10:48:12;;;;;;;10.52;6.00;;;;;;;15.83;100.00;101807.00;5013533;28;20037;-74
2022/10/17 10:50:45;;;;;;;10.98;6.30;;;;;;;15.82;100.00;101814.38;5013565;28;20045;-73
2022/10/17 10:53:32;;;;;;;14.70;6.30;;;;;;;15.84;100.00;101817.69;5012937;28;20038;-73
2022/10/17 10:56:02;;;;;;;7.72;6.22;;;;;;;15.82;100.00;101821.72;5012877;28;20029;-73
2022/10/17 10:58:38;;;;;;;13.60;6.68;;;;;;;15.81;100.00;101809.97;5019679;28;20072;-74
2022/10/17 11:01:16;;;;;;;12.35;6.68;;;;;;;15.82;100.00;101816.25;5009488;28;20025;-73
2022/10/17 11:04:09;;;;;;;11.15;6.80;;;;;;;15.80;100.00;101812.94;5013235;28;20516;-73
2022/10/17 11:06:38;;;;;;;10.15;6.97;;;;;;;15.81;100.00;101814.59;5011334;28;20417;-73
2022/10/17 11:09:18;;;;;;;9.73;6.60;;;;;;;15.82;100.00;101813.53;5013092;28;20052;-73
2022/10/17 11:11:52;;;;;;;11.50;6.78;;;;;;;15.84;100.00;101814.13;5012868;28;20544;-73
2022/10/17 11:14:27;;;;;;;12.32;7.65;;;;;;;15.85;100.00;101824.81;5013010;28;20018;-73
2022/10/17 11:17:02;;;;;;;8.95;6.68;;;;;;;15.84;100.00;101827.78;5013034;28;20022;-73
2022/10/17 11:19:36;;;;;;;11.80;7.57;;;;;;;15.85;100.00;101833.00;5013123;28;20080;-73
2022/10/17 11:22:15;;;;;;;12.32;7.10;;;;;;;15.86;100.00;101839.28;5012608;28;21279;-73
2022/10/17 11:24:49;;;;;;;12.07;7.38;;;;;;;15.88;100.00;101842.59;5011741;28;20064;-73